createdAt,value
2018-01-23T00:00:27.121Z,35.05
2018-01-23T00:02:54.785Z,31.87
2018-01-23T00:05:22.367Z,30.02
2018-01-23T00:07:49.927Z,30.90
2018-01-23T00:10:17.398Z,30.88
2018-01-23T00:12:44.836Z,33.63
2018-01-23T00:15:12.268Z,34.42
2018-01-23T00:17:39.703Z,31.23
2018-01-23T00:20:07.206Z,33.42
2018-01-23T00:22:34.638Z,32.15
2018-01-23T00:25:02.314Z,35.35
2018-01-23T00:27:29.774Z,35.88
2018-01-23T00:29:57.194Z,32.30
2018-01-23T00:32:25.402Z,36.72
2018-01-23T00:34:52.838Z,35.47
2018-01-23T00:37:20.334Z,31.37
2018-01-23T00:39:47.758Z,34.90
2018-01-23T00:42:15.186Z,35.30
2018-01-23T00:44:43.426Z,31.87
2018-01-23T00:47:10.880Z,34.15
2018-01-23T00:49:38.326Z,32.30
2018-01-23T00:52:05.756Z,34.08
2018-01-23T00:54:33.201Z,41.28
2018-01-23T00:57:00.646Z,33.33
2018-01-23T00:59:28.852Z,41.63
2018-01-23T01:01:56.283Z,41.13
2018-01-23T01:04:23.785Z,44.22
2018-01-23T01:06:51.215Z,40.72
2018-01-23T01:09:18.699Z,42.10
2018-01-23T01:11:46.133Z,42.10
2018-01-23T01:14:13.567Z,39.38
2018-01-23T01:16:41.062Z,42.20
2018-01-23T01:19:08.501Z,43.28
2018-01-23T01:21:35.978Z,40.92
2018-01-23T01:24:03.452Z,46.08
2018-01-23T01:26:30.902Z,43.47
2018-01-23T01:28:58.345Z,42.00
2018-01-23T01:31:25.806Z,44.78
2018-01-23T01:33:53.253Z,50.73
2018-01-23T01:36:20.713Z,54.63
2018-01-23T01:38:48.174Z,52.80
2018-01-23T01:41:15.630Z,57.42
2018-01-23T01:43:43.086Z,50.08
2018-01-23T01:46:10.523Z,53.97
2018-01-23T01:48:50.060Z,51.00
2018-01-23T01:51:17.473Z,57.35
2018-01-23T01:53:45.002Z,53.72
2018-01-23T01:56:12.465Z,53.65
2018-01-23T01:58:39.889Z,61.88
2018-01-23T02:01:07.324Z,57.55
2018-01-23T02:03:34.785Z,57.65
2018-01-23T02:06:02.366Z,55.30
2018-01-23T02:08:29.782Z,52.55
2018-01-23T02:10:57.993Z,55.85
2018-01-23T02:13:25.434Z,57.62
2018-01-23T02:15:52.894Z,55.10
2018-01-23T02:18:20.338Z,56.03
2018-01-23T02:20:47.842Z,47.38
2018-01-23T02:23:15.278Z,53.63
2018-01-23T02:25:42.750Z,47.95
2018-01-23T02:28:10.201Z,54.80
2018-01-23T02:30:37.625Z,57.40
2018-01-23T02:33:05.062Z,57.50
2018-01-23T02:35:33.287Z,56.35
2018-01-23T02:38:00.713Z,56.37
2018-01-23T02:40:28.192Z,54.97
2018-01-23T02:42:55.626Z,60.67
2018-01-23T02:45:23.069Z,54.35
2018-01-23T02:47:50.562Z,55.40
2018-01-23T02:50:18.006Z,52.80
2018-01-23T02:52:45.453Z,62.85
2018-01-23T02:55:12.905Z,56.75
2018-01-23T02:57:40.345Z,58.78
2018-01-23T03:00:08.563Z,57.78
2018-01-23T03:02:35.996Z,56.60
2018-01-23T03:05:03.425Z,49.25
2018-01-23T03:07:31.614Z,52.45
2018-01-23T03:09:59.106Z,52.25
2018-01-23T03:12:26.543Z,50.72
2018-01-23T03:14:53.975Z,51.25
2018-01-23T03:17:21.407Z,51.17
2018-01-23T03:19:48.849Z,56.17
2018-01-23T03:22:16.298Z,52.20
2018-01-23T03:24:43.742Z,53.35
2018-01-23T03:27:11.197Z,50.72
2018-01-23T03:29:38.805Z,49.45
2018-01-23T03:32:07.124Z,58.33
2018-01-23T03:34:34.571Z,49.25
2018-01-23T03:37:01.992Z,53.47
2018-01-23T03:39:30.193Z,56.13
2018-01-23T03:41:57.639Z,50.38
2018-01-23T03:44:25.078Z,57.22
2018-01-23T03:46:53.275Z,57.40
2018-01-23T03:49:20.766Z,52.85
2018-01-23T03:51:48.190Z,55.12
2018-01-23T03:54:15.625Z,59.17
2018-01-23T03:56:43.920Z,53.50
2018-01-23T03:59:11.418Z,62.45
2018-01-23T04:01:38.977Z,56.97
2018-01-23T04:04:06.533Z,60.10
2018-01-23T04:06:33.990Z,56.25
2018-01-23T04:09:01.446Z,63.33
2018-01-23T04:11:28.903Z,52.90
2018-01-23T04:13:56.345Z,55.83
2018-01-23T04:16:23.817Z,52.83
2018-01-23T04:18:52.021Z,53.85
2018-01-23T04:21:20.253Z,57.15
2018-01-23T04:23:47.692Z,60.67
2018-01-23T04:26:15.169Z,57.25
2018-01-23T04:28:42.621Z,60.65
2018-01-23T04:31:10.050Z,58.63
2018-01-23T04:33:37.533Z,49.17
2018-01-23T04:36:04.965Z,55.85
2018-01-23T04:38:32.397Z,59.45
2018-01-23T04:41:00.625Z,59.78
2018-01-23T04:43:28.077Z,63.25
2018-01-23T04:45:55.522Z,68.75
2018-01-23T04:48:22.945Z,58.83
2018-01-23T04:50:51.146Z,58.73
2018-01-23T04:53:18.627Z,55.75
2018-01-23T04:55:46.074Z,62.33
2018-01-23T04:58:13.510Z,56.78
2018-01-23T05:00:41.584Z,56.03
2018-01-23T05:03:08.997Z,60.40
2018-01-23T05:05:37.237Z,62.13
2018-01-23T05:08:04.673Z,59.40
2018-01-23T05:10:32.145Z,59.33
2018-01-23T05:12:59.601Z,57.43
2018-01-23T05:15:27.032Z,63.45
2018-01-23T05:17:54.460Z,54.25
2018-01-23T05:20:22.663Z,55.90
2018-01-23T05:22:50.136Z,53.38
2018-01-23T05:25:17.569Z,53.60
2018-01-23T05:27:45.058Z,53.60
2018-01-23T05:30:12.493Z,54.60
2018-01-23T05:32:39.949Z,54.72
2018-01-23T05:35:07.395Z,51.70
2018-01-23T05:37:34.885Z,53.70
2018-01-23T05:40:02.325Z,49.95
2018-01-23T05:42:29.798Z,46.90
2018-01-23T05:44:57.335Z,48.35
2018-01-23T05:47:24.761Z,49.65
2018-01-23T05:49:52.272Z,49.17
2018-01-23T05:52:19.701Z,52.58
2018-01-23T05:54:47.169Z,54.67
2018-01-23T05:57:14.746Z,53.40
2018-01-23T05:59:42.186Z,56.83
2018-01-23T06:02:09.618Z,59.53
2018-01-23T06:04:37.082Z,56.42
2018-01-23T06:07:04.553Z,62.33
2018-01-23T06:09:31.990Z,63.85
2018-01-23T06:11:59.430Z,60.30
2018-01-23T06:14:27.653Z,59.97
2018-01-23T06:16:55.198Z,53.25
2018-01-23T06:19:22.665Z,54.28
2018-01-23T06:21:50.122Z,53.47
2018-01-23T06:24:17.592Z,54.72
2018-01-23T06:26:45.043Z,55.83
2018-01-23T06:29:12.486Z,60.83
2018-01-23T06:31:40.028Z,55.07
2018-01-23T06:34:07.445Z,60.27
2018-01-23T06:36:35.662Z,57.78
2018-01-23T06:39:03.101Z,56.35
2018-01-23T06:41:30.542Z,57.45
2018-01-23T06:43:58.846Z,55.55
2018-01-23T06:46:26.270Z,59.85
2018-01-23T06:48:54.493Z,57.80
2018-01-23T06:51:21.944Z,51.42
2018-01-23T06:53:49.387Z,58.85
2018-01-23T06:56:16.850Z,55.63
2018-01-23T06:58:44.277Z,54.33
2018-01-23T07:01:11.729Z,54.00
2018-01-23T07:03:39.197Z,53.75
2018-01-23T07:06:07.402Z,51.83
2018-01-23T07:08:34.830Z,52.95
2018-01-23T07:11:02.281Z,59.28
2018-01-23T07:13:29.858Z,57.78
2018-01-23T07:15:57.281Z,62.55
2018-01-23T07:18:25.481Z,51.55
2018-01-23T07:20:53.047Z,53.65
2018-01-23T07:23:20.507Z,55.38
2018-01-23T07:25:47.956Z,57.20
2018-01-23T07:28:15.414Z,47.03
2018-01-23T07:30:42.899Z,49.17
2018-01-23T07:33:10.341Z,45.90
2018-01-23T07:35:37.798Z,51.58
2018-01-23T07:38:05.237Z,43.55
2018-01-23T07:40:32.715Z,41.97
2018-01-23T07:43:00.259Z,44.25
2018-01-23T07:45:27.736Z,48.60
2018-01-23T07:47:55.270Z,48.35
2018-01-23T07:50:22.746Z,49.35
2018-01-23T07:52:50.179Z,48.83
2018-01-23T07:55:17.644Z,49.42
2018-01-23T07:57:45.080Z,44.47
2018-01-23T08:00:12.520Z,44.92
2018-01-23T08:02:40.709Z,42.60
2018-01-23T08:05:08.283Z,45.08
2018-01-23T08:07:35.699Z,39.70
2018-01-23T08:10:03.955Z,51.40
2018-01-23T08:12:31.366Z,45.00
2018-01-23T08:14:58.847Z,46.80
2018-01-23T08:17:26.412Z,47.90
2018-01-23T08:19:53.858Z,53.50
2018-01-23T08:22:21.297Z,48.50
2018-01-23T08:24:48.776Z,45.85
2018-01-23T08:27:16.208Z,48.97
2018-01-23T08:29:43.677Z,47.10
2018-01-23T08:32:11.142Z,51.42
2018-01-23T08:34:38.731Z,54.63
2018-01-23T08:37:06.139Z,49.03
2018-01-23T08:39:33.631Z,48.50
2018-01-23T08:42:01.091Z,49.47
2018-01-23T08:44:28.542Z,45.92
2018-01-23T08:46:56.066Z,47.33
2018-01-23T08:49:23.494Z,53.87
2018-01-23T08:51:51.796Z,54.50
2018-01-23T08:54:19.265Z,57.60
2018-01-23T08:56:46.914Z,62.25
2018-01-23T08:59:14.369Z,62.70
2018-01-23T09:01:41.847Z,63.03
2018-01-23T09:04:09.386Z,64.68
2018-01-23T09:06:36.868Z,58.33
2018-01-23T09:09:04.314Z,65.72
2018-01-23T09:11:31.758Z,52.90
2018-01-23T09:13:59.315Z,67.87
2018-01-23T09:16:26.798Z,66.28
2018-01-23T09:18:54.330Z,60.17
2018-01-23T09:21:21.758Z,61.05
2018-01-23T09:23:50.062Z,57.10
2018-01-23T09:26:17.481Z,51.65
2018-01-23T09:28:45.805Z,60.78
2018-01-23T09:31:13.257Z,50.75
2018-01-23T09:33:40.734Z,55.53
2018-01-23T09:36:08.178Z,58.43
2018-01-23T09:38:35.717Z,51.00
2018-01-23T09:41:03.171Z,54.22
2018-01-23T09:43:31.284Z,52.40
2018-01-23T09:45:58.770Z,50.22
2018-01-23T09:48:26.365Z,51.70
2018-01-23T09:50:53.781Z,49.87
2018-01-23T09:53:22.097Z,45.95
2018-01-23T09:55:49.579Z,54.45
2018-01-23T09:58:17.030Z,46.90
2018-01-23T10:00:44.570Z,44.72
2018-01-23T10:03:12.049Z,48.20
2018-01-23T10:05:39.579Z,51.22
2018-01-23T10:08:07.053Z,54.90
2018-01-23T10:10:34.537Z,50.28
2018-01-23T10:13:02.032Z,53.45
2018-01-23T10:15:29.426Z,54.50
2018-01-23T10:17:56.881Z,49.65
2018-01-23T10:20:24.337Z,49.90
2018-01-23T10:22:51.802Z,48.55
2018-01-23T10:25:19.338Z,52.67
2018-01-23T10:27:46.757Z,54.90
2018-01-23T10:30:14.967Z,52.50
2018-01-23T10:32:42.525Z,58.28
2018-01-23T10:35:10.021Z,64.72
2018-01-23T10:37:37.475Z,67.22
2018-01-23T10:40:04.996Z,61.07
2018-01-23T10:42:32.417Z,55.10
2018-01-23T10:45:00.662Z,63.70
2018-01-23T10:47:28.187Z,61.30
2018-01-23T10:49:55.666Z,70.47
2018-01-23T10:52:23.920Z,61.90
2018-01-23T10:54:51.372Z,62.92
2018-01-23T10:57:18.786Z,63.80
2018-01-23T10:59:47.034Z,66.40
2018-01-23T11:02:14.518Z,58.80
2018-01-23T11:04:42.145Z,56.33
2018-01-23T11:07:09.590Z,58.63
2018-01-23T11:09:37.025Z,58.20
2018-01-23T11:12:04.513Z,60.03
2018-01-23T11:14:31.971Z,55.17
2018-01-23T11:16:59.423Z,53.50
2018-01-23T11:19:26.863Z,55.28
2018-01-23T11:21:54.310Z,49.83
2018-01-23T11:24:21.779Z,49.42
2018-01-23T11:26:49.251Z,50.08
2018-01-23T11:29:16.686Z,52.92
2018-01-23T11:31:44.994Z,50.17
2018-01-23T11:34:12.523Z,50.20
2018-01-23T11:36:39.997Z,50.25
2018-01-23T11:39:07.426Z,46.63
2018-01-23T11:41:34.869Z,48.90
2018-01-23T11:44:02.469Z,41.20
2018-01-23T11:46:29.903Z,46.65
2018-01-23T11:48:57.343Z,44.08
2018-01-23T11:51:24.769Z,50.23
2018-01-23T11:53:52.481Z,46.42
2018-01-23T11:56:19.932Z,41.67
2018-01-23T11:58:47.353Z,38.17
2018-01-23T12:01:15.604Z,41.47
2018-01-23T12:03:43.038Z,38.40
2018-01-23T12:06:10.481Z,35.70
2018-01-23T12:08:37.966Z,41.17
2018-01-23T12:11:05.406Z,30.25
2018-01-23T12:13:32.843Z,29.77
2018-01-23T12:16:00.349Z,37.00
2018-01-23T12:18:27.788Z,30.23
2018-01-23T12:20:55.233Z,30.58
2018-01-23T12:23:22.880Z,27.17
2018-01-23T12:25:50.473Z,32.03
2018-01-23T12:28:17.922Z,30.80
2018-01-23T12:30:45.479Z,31.45
2018-01-23T12:33:12.922Z,25.95
2018-01-23T12:35:40.378Z,33.53
2018-01-23T12:38:07.821Z,27.62
2018-01-23T12:40:35.322Z,30.17
2018-01-23T12:43:02.809Z,26.40
2018-01-23T12:45:30.250Z,25.27
2018-01-23T12:47:57.764Z,28.20
2018-01-23T12:50:25.942Z,28.75
2018-01-23T12:52:53.380Z,26.23
2018-01-23T12:55:21.698Z,29.85
2018-01-23T12:57:49.563Z,31.08
2018-01-23T13:00:17.096Z,26.27
2018-01-23T13:02:44.521Z,28.38
2018-01-23T13:05:12.278Z,27.70
2018-01-23T13:07:39.857Z,26.33
2018-01-23T13:10:07.285Z,27.62
2018-01-23T13:12:34.726Z,30.70
2018-01-23T13:15:02.190Z,26.27
2018-01-23T13:17:29.681Z,25.60
2018-01-23T13:19:57.114Z,26.70
2018-01-23T13:22:24.557Z,28.52
2018-01-23T13:24:51.998Z,23.77
2018-01-23T13:27:19.453Z,25.00
2018-01-23T13:29:47.030Z,25.70
2018-01-23T13:32:14.494Z,27.37
2018-01-23T13:34:41.957Z,28.33
2018-01-23T13:37:10.221Z,26.85
2018-01-23T13:39:37.701Z,26.60
2018-01-23T13:42:05.161Z,28.40
2018-01-23T13:44:32.594Z,28.77
2018-01-23T13:47:00.031Z,28.42
2018-01-23T13:49:27.478Z,28.33
2018-01-23T13:51:54.909Z,27.93
2018-01-23T13:54:22.429Z,28.60
2018-01-23T13:56:49.905Z,24.02
2018-01-23T13:59:17.325Z,30.15
2018-01-23T14:01:44.836Z,26.45
2018-01-23T14:04:13.166Z,26.23
2018-01-23T14:06:40.704Z,26.33
2018-01-23T14:09:08.158Z,28.23
2018-01-23T14:11:35.633Z,25.80
2018-01-23T14:14:03.082Z,23.12
2018-01-23T14:16:30.534Z,25.85
2018-01-23T14:18:57.969Z,25.87
2018-01-23T14:21:25.396Z,25.65
2018-01-23T14:23:53.745Z,25.27
2018-01-23T14:26:21.204Z,23.40
2018-01-23T14:28:48.650Z,27.90
2018-01-23T14:31:16.290Z,26.50
2018-01-23T14:33:43.948Z,27.20
2018-01-23T14:36:11.509Z,24.20
2018-01-23T14:38:38.981Z,27.52
2018-01-23T14:41:06.442Z,28.58
2018-01-23T14:43:34.018Z,22.13
2018-01-23T14:46:01.453Z,21.62
2018-01-23T14:48:29.024Z,28.45
2018-01-23T14:50:56.597Z,25.55
2018-01-23T14:53:24.049Z,24.48
2018-01-23T14:55:51.474Z,23.50
2018-01-23T14:58:19.010Z,28.75
2018-01-23T15:00:47.245Z,25.92
2018-01-23T15:03:14.677Z,22.40
2018-01-23T15:05:42.125Z,22.48
2018-01-23T15:08:09.623Z,22.55
2018-01-23T15:10:37.817Z,26.03
2018-01-23T15:13:05.322Z,23.60
2018-01-23T15:15:32.761Z,25.95
2018-01-23T15:18:00.250Z,22.37
2018-01-23T15:20:27.810Z,21.17
2018-01-23T15:22:55.254Z,24.57
2018-01-23T15:25:22.679Z,27.60
2018-01-23T15:27:50.137Z,24.37
2018-01-23T15:30:17.642Z,26.02
2018-01-23T15:32:45.278Z,23.45
2018-01-23T15:35:12.723Z,24.17
2018-01-23T15:37:40.213Z,20.37
2018-01-23T15:40:07.762Z,23.07
2018-01-23T15:42:35.233Z,20.73
2018-01-23T15:45:02.871Z,24.58
2018-01-23T15:47:30.313Z,22.45
2018-01-23T15:49:57.774Z,23.08
2018-01-23T15:52:25.241Z,23.33
2018-01-23T15:54:52.691Z,22.95
2018-01-23T15:57:20.171Z,19.73
2018-01-23T15:59:47.617Z,21.73
2018-01-23T16:02:15.068Z,19.65
2018-01-23T16:04:42.617Z,22.02
2018-01-23T16:07:10.199Z,21.30
2018-01-23T16:09:37.631Z,20.95
2018-01-23T16:12:05.099Z,20.77
2018-01-23T16:14:32.554Z,23.75
2018-01-23T16:17:00.009Z,20.02
2018-01-23T16:19:27.474Z,21.73
2018-01-23T16:21:54.941Z,22.30
2018-01-23T16:24:22.371Z,22.15
2018-01-23T16:26:49.813Z,21.17
2018-01-23T16:29:17.261Z,19.37
2018-01-23T16:31:44.761Z,19.75
2018-01-23T16:34:12.200Z,19.50
2018-01-23T16:36:39.637Z,23.23
2018-01-23T16:39:07.129Z,19.52
2018-01-23T16:41:34.581Z,23.73
2018-01-23T16:44:02.030Z,21.75
2018-01-23T16:46:29.482Z,15.90
2018-01-23T16:48:56.941Z,16.70
2018-01-23T16:51:24.361Z,19.70
2018-01-23T16:53:51.910Z,19.35
2018-01-23T16:56:19.449Z,19.08
2018-01-23T16:58:46.859Z,15.73
2018-01-23T17:01:14.314Z,18.23
2018-01-23T17:03:41.858Z,21.15
2018-01-23T17:06:10.041Z,17.57
2018-01-23T17:08:37.490Z,16.17
2018-01-23T17:11:05.706Z,15.32
2018-01-23T17:13:33.249Z,14.85
2018-01-23T17:16:00.705Z,17.87
2018-01-23T17:18:28.218Z,17.62
2018-01-23T17:20:57.158Z,17.80
2018-01-23T17:23:24.654Z,16.20
2018-01-23T17:25:52.100Z,17.90
2018-01-23T17:28:19.548Z,20.67
2018-01-23T17:30:47.110Z,20.50
2018-01-23T17:33:14.553Z,20.62
2018-01-23T17:35:42.822Z,19.30
2018-01-23T17:38:10.267Z,21.93
2018-01-23T17:40:37.706Z,18.80
2018-01-23T17:43:05.184Z,21.83
2018-01-23T17:45:32.633Z,21.67
2018-01-23T17:48:00.088Z,27.85
2018-01-23T17:50:27.529Z,22.67
2018-01-23T17:52:55.029Z,26.53
2018-01-23T17:55:22.585Z,24.55
2018-01-23T17:57:50.053Z,25.15
2018-01-23T18:00:17.470Z,21.85
2018-01-23T18:02:44.907Z,18.45
2018-01-23T18:05:12.359Z,19.27
2018-01-23T18:07:40.554Z,16.98
2018-01-23T18:10:08.137Z,20.60
2018-01-23T18:12:35.578Z,17.75
2018-01-23T18:15:03.036Z,22.48
2018-01-23T18:17:30.457Z,18.77
2018-01-23T18:19:58.661Z,20.10
2018-01-23T18:22:26.132Z,24.40
2018-01-23T18:24:53.579Z,22.30
2018-01-23T18:27:21.018Z,21.73
2018-01-23T18:29:48.454Z,20.40
2018-01-23T18:32:16.690Z,18.90
2018-01-23T18:34:44.233Z,17.73
2018-01-23T18:37:11.666Z,19.20
2018-01-23T18:39:39.937Z,19.48
2018-01-23T18:42:07.374Z,19.15
2018-01-23T18:44:35.597Z,19.65
2018-01-23T18:47:03.054Z,17.17
2018-01-23T18:49:30.509Z,16.37
2018-01-23T18:51:57.982Z,20.85
2018-01-23T18:54:25.437Z,15.20
2018-01-23T18:56:52.888Z,15.68
2018-01-23T18:59:20.345Z,18.77
2018-01-23T19:01:47.794Z,18.10
2018-01-23T19:04:15.253Z,16.10
2018-01-23T19:06:42.705Z,15.73
2018-01-23T19:09:10.146Z,16.80
2018-01-23T19:11:37.590Z,15.40
2018-01-23T19:14:05.030Z,17.80
2018-01-23T19:16:33.230Z,20.12
2018-01-23T19:19:00.672Z,20.70
2018-01-23T19:21:28.134Z,20.05
2018-01-23T19:23:55.624Z,18.15
2018-01-23T19:26:23.090Z,20.42
2018-01-23T19:28:50.745Z,18.53
2018-01-23T19:31:18.201Z,21.98
2018-01-23T19:33:45.753Z,14.55
2018-01-23T19:36:13.209Z,14.20
2018-01-23T19:38:40.709Z,14.98
2018-01-23T19:41:08.114Z,14.63
2018-01-23T19:43:35.568Z,13.70
2018-01-23T19:46:03.015Z,17.15
2018-01-23T19:48:30.454Z,14.00
2018-01-23T19:50:58.005Z,14.73
2018-01-23T19:53:25.445Z,14.70
2018-01-23T19:55:53.661Z,13.27
2018-01-23T19:58:21.106Z,17.08
2018-01-23T20:00:48.601Z,17.15
2018-01-23T20:03:16.054Z,15.73
2018-01-23T20:05:43.506Z,14.80
2018-01-23T20:08:10.966Z,15.13
2018-01-23T20:10:38.429Z,14.10
2018-01-23T20:13:05.889Z,16.98
2018-01-23T20:15:33.441Z,15.00
2018-01-23T20:18:00.868Z,15.93
2018-01-23T20:20:28.321Z,16.67
2018-01-23T20:22:55.746Z,15.48
2018-01-23T20:25:23.964Z,16.40
2018-01-23T20:27:51.401Z,17.92
2018-01-23T20:30:18.841Z,19.37
2018-01-23T20:32:47.070Z,17.30
2018-01-23T20:35:14.514Z,17.87
2018-01-23T20:37:41.981Z,20.42
2018-01-23T20:40:09.429Z,17.52
2018-01-23T20:42:36.869Z,15.02
2018-01-23T20:45:04.448Z,15.90
2018-01-23T20:47:31.922Z,16.20
2018-01-23T20:49:59.556Z,15.90
2018-01-23T20:52:26.965Z,15.27
2018-01-23T20:54:54.589Z,16.12
2018-01-23T20:57:22.150Z,17.62
2018-01-23T20:59:49.683Z,17.30
2018-01-23T21:02:17.162Z,18.70
2018-01-23T21:04:44.623Z,17.48
2018-01-23T21:07:12.186Z,19.40
2018-01-23T21:09:39.641Z,19.08
2018-01-23T21:12:07.101Z,19.77
2018-01-23T21:14:34.549Z,21.77
2018-01-23T21:17:02.006Z,21.35
2018-01-23T21:19:29.655Z,20.65
2018-01-23T21:21:57.079Z,22.23
2018-01-23T21:24:25.401Z,21.30
2018-01-23T21:26:52.858Z,21.77
2018-01-23T21:29:20.301Z,21.80
2018-01-23T21:31:47.990Z,21.70
2018-01-23T21:34:15.446Z,23.35
2018-01-23T21:36:42.878Z,21.65
2018-01-23T21:39:10.349Z,21.30
2018-01-23T21:41:37.787Z,29.05
2018-01-23T21:44:05.352Z,20.98
2018-01-23T21:46:32.826Z,21.10
2018-01-23T21:49:00.273Z,22.08
2018-01-23T21:51:27.737Z,21.73
2018-01-23T21:53:55.197Z,21.42
2018-01-23T21:56:22.649Z,23.98
2018-01-23T21:58:50.102Z,23.63
2018-01-23T22:01:17.630Z,23.75
2018-01-23T22:03:45.061Z,21.65
2018-01-23T22:06:13.290Z,21.75
2018-01-23T22:08:40.733Z,23.05
2018-01-23T22:11:08.316Z,21.15
2018-01-23T22:13:35.770Z,21.77
2018-01-23T22:16:03.215Z,24.05
2018-01-23T22:18:30.674Z,20.80
2018-01-23T22:20:58.129Z,21.65
2018-01-23T22:23:25.567Z,20.65
2018-01-23T22:25:53.008Z,23.33
2018-01-23T22:28:20.446Z,23.33
2018-01-23T22:30:48.713Z,24.15
2018-01-23T22:33:16.137Z,22.55
2018-01-23T22:35:43.574Z,21.05
2018-01-23T22:38:11.026Z,22.90
2018-01-23T22:40:38.503Z,23.40
2018-01-23T22:43:05.969Z,23.33
2018-01-23T22:45:33.422Z,22.52
2018-01-23T22:48:00.865Z,23.60
2018-01-23T22:50:28.302Z,22.60
2018-01-23T22:52:55.785Z,23.90
2018-01-23T22:55:23.222Z,24.55
2018-01-23T22:57:50.689Z,24.30
2018-01-23T23:00:18.125Z,25.85
2018-01-23T23:02:45.587Z,24.90
2018-01-23T23:05:13.049Z,26.77
2018-01-23T23:07:40.482Z,27.00
2018-01-23T23:10:07.982Z,26.73
2018-01-23T23:12:35.533Z,27.08
2018-01-23T23:15:02.969Z,27.25
2018-01-23T23:17:30.397Z,26.48
2018-01-23T23:19:58.614Z,27.83
2018-01-23T23:22:26.037Z,26.80
2018-01-23T23:24:54.361Z,27.50
2018-01-23T23:27:22.024Z,27.73
2018-01-23T23:29:49.549Z,27.90
2018-01-23T23:32:17.013Z,26.77
2018-01-23T23:34:44.493Z,27.55
2018-01-23T23:37:11.933Z,26.83
2018-01-23T23:39:39.373Z,28.50
2018-01-23T23:42:06.818Z,27.83
2018-01-23T23:44:35.032Z,27.75
2018-01-23T23:47:02.493Z,26.48
2018-01-23T23:49:30.157Z,27.27
2018-01-23T23:51:57.609Z,28.17
2018-01-23T23:54:25.049Z,29.92
2018-01-23T23:56:52.533Z,28.27
2018-01-23T23:59:20.000Z,29.57
